KSUU/SUU METAR and TAF weather

Enter ICAO airport designator
Station Type Date Time Source
KSUU METAR 2019/08/21 21:58 UTC NOAA

KSUU 212158Z AUTO 23014KT 10SM CLR 35/13 A2986 RMK AO2 SLP118 T03500132


Station Type Date Time Source
KSUU Decoded METAR 2019/08/21 21:58 UTC NOAA

Station name not available
Aug 21, 2019 - 05:58 PM EDT / 2019.08.21 2158 UTC
Wind: from the SW (230 degrees) at 16 MPH (14 KT):0
Visibility: 10 mile(s):0
Sky conditions: clear
Temperature: 95.0 F (35.0 C)
Dew Point: 55.8 F (13.2 C)
Relative Humidity: 26%
Pressure (altimeter): 29.86 in. Hg (1011 hPa)
ob: KSUU 212158Z AUTO 23014KT 10SM CLR 35/13 A2986 RMK AO2 SLP118 T03500132
cycle: 22

Station Type Date Time Source
KSUU TAF 2019/08/21 19:03 UTC NOAA

TAF KSUU 211900Z 2119/2301 23010KT 9999 SKC QNH2982INS
BECMG 2123/2124 23015G25KT 9999 SKC QNH2979INS
BECMG 2210/2211 23010KT 9999 SKC QNH2970INS TX34/2123Z TN17/2213Z

Example: see airport list